Time;durP1;ratioP1;P1;durP2;ratioP2;P2;SDS_P1;SDS_P2;PMS_P1;PMS_P2;Temp;Humidity;BMP_temperature;BMP_pressure;BME280_temperature;BME280_humidity;BME280_pressure;Samples;Min_cycle;Max_cycle;Signal;HPM_P1;HPM_P2
2022/12/06 04:59:49;;;;;;;1.70;1.60;;;19.10;99.90;;;;;;5699129;23;20222;-77
2022/12/06 05:02:17;;;;;;;2.85;1.73;;;19.10;99.90;;;;;;4994310;28;20232;-77
2022/12/06 05:04:43;;;;;;;1.98;1.75;;;19.10;99.90;;;;;;4994132;28;20550;-76
2022/12/06 05:07:11;;;;;;;2.25;2.15;;;19.10;99.90;;;;;;4994024;28;20228;-76
2022/12/06 05:09:38;;;;;;;4.82;1.65;;;19.10;99.90;;;;;;4994692;28;20276;-76
2022/12/06 05:12:05;;;;;;;2.60;1.77;;;19.10;99.90;;;;;;5020313;23;20222;-76
2022/12/06 05:14:32;;;;;;;3.30;1.90;;;19.10;99.90;;;;;;4997679;28;20229;-79
2022/12/06 05:17:00;;;;;;;3.45;1.60;;;19.10;99.90;;;;;;4998893;28;20235;-81
2022/12/06 05:19:27;;;;;;;2.72;1.73;;;19.10;99.90;;;;;;5001449;28;20206;-82
2022/12/06 05:21:53;;;;;;;4.38;1.92;;;19.20;99.90;;;;;;5001456;28;20201;-82
2022/12/06 05:24:20;;;;;;;2.25;1.75;;;19.00;99.90;;;;;;5001661;28;20226;-81
2022/12/06 05:26:47;;;;;;;7.35;2.35;;;19.00;99.90;;;;;;5001871;28;20205;-80
2022/12/06 05:29:14;;;;;;;8.38;2.35;;;19.00;99.90;;;;;;4999653;28;20209;-80
2022/12/06 05:31:40;;;;;;;20.23;2.85;;;19.00;99.90;;;;;;4999647;28;20229;-80
2022/12/06 05:34:09;;;;;;;9.48;3.00;;;19.00;99.90;;;;;;5003843;28;20584;-80
2022/12/06 05:36:36;;;;;;;8.75;2.50;;;18.90;99.90;;;;;;5007615;28;20213;-82
2022/12/06 05:39:03;;;;;;;10.77;3.45;;;19.10;99.90;;;;;;5004433;28;20285;-82
2022/12/06 05:41:30;;;;;;;6.55;3.22;;;19.00;99.90;;;;;;5002425;28;20198;-82
2022/12/06 05:43:57;;;;;;;17.63;3.30;;;19.00;99.90;;;;;;5002737;28;20308;-81
2022/12/06 05:46:24;;;;;;;32.67;4.25;;;19.00;99.90;;;;;;5000420;28;20202;-75
2022/12/06 05:48:50;;;;;;;7.45;3.22;;;19.00;99.90;;;;;;4998648;28;20696;-79
2022/12/06 05:51:18;;;;;;;12.68;3.72;;;19.00;99.90;;;;;;4999397;28;20218;-77
2022/12/06 05:53:45;;;;;;;6.57;3.65;;;18.90;99.90;;;;;;4998951;28;20737;-77
2022/12/06 05:56:12;;;;;;;12.60;3.72;;;18.80;99.90;;;;;;4999694;28;20198;-77
2022/12/06 05:58:40;;;;;;;10.77;3.67;;;18.80;99.90;;;;;;5000208;28;20202;-78
2022/12/06 06:01:08;;;;;;;11.02;3.88;;;18.80;99.90;;;;;;4999392;28;20202;-75
2022/12/06 06:03:35;;;;;;;11.57;3.63;;;18.80;99.90;;;;;;4997696;28;20222;-75
2022/12/06 06:06:02;;;;;;;16.52;3.38;;;18.80;99.90;;;;;;4998761;28;20202;-76
2022/12/06 06:08:31;;;;;;;12.13;3.47;;;18.90;99.90;;;;;;4999027;28;20213;-78
2022/12/06 12:26:45;;;;;;;18.55;3.03;;;19.00;99.90;;;;;;5009826;23;20230;-74
2022/12/06 12:29:18;;;;;;;12.73;2.63;;;18.90;99.90;;;;;;4980131;28;20230;-74
2022/12/06 12:31:57;;;;;;;16.98;3.35;;;19.00;99.90;;;;;;4980649;28;20235;-73
2022/12/06 12:34:26;;;;;;;13.77;2.92;;;18.90;99.90;;;;;;4980526;28;20190;-73
2022/12/06 12:36:57;;;;;;;16.35;2.92;;;19.00;99.90;;;;;;4980161;28;20199;-73
2022/12/06 12:39:31;;;;;;;6.97;2.38;;;19.10;99.90;;;;;;4981204;28;20191;-75
2022/12/06 12:42:01;;;;;;;21.58;2.83;;;18.90;99.90;;;;;;4980664;28;20186;-75
2022/12/06 12:44:30;;;;;;;11.95;2.58;;;18.90;99.90;;;;;;4980930;28;20210;-75
2022/12/06 12:47:00;;;;;;;8.93;2.65;;;18.90;99.90;;;;;;4981202;28;20210;-75
2022/12/06 12:49:31;;;;;;;12.85;2.45;;;18.90;99.90;;;;;;4981062;28;20258;-75
2022/12/06 12:51:59;;;;;;;27.40;3.15;;;18.90;99.90;;;;;;4979573;28;20213;-75
2022/12/06 12:54:30;;;;;;;14.40;2.83;;;18.90;99.90;;;;;;4980801;28;20203;-75
2022/12/06 12:57:01;;;;;;;9.20;2.28;;;18.90;99.90;;;;;;4979658;28;20658;-75
2022/12/06 12:59:37;;;;;;;10.82;2.13;;;19.00;99.90;;;;;;4980531;28;20195;-75
2022/12/06 13:02:15;;;;;;;13.50;2.28;;;18.90;99.90;;;;;;4978573;28;20218;-75
2022/12/06 13:04:45;;;;;;;16.63;3.08;;;19.00;99.90;;;;;;4982122;28;20227;-74
2022/12/06 13:07:18;;;;;;;13.38;2.33;;;19.00;99.90;;;;;;4981451;28;20211;-74
2022/12/06 13:09:57;;;;;;;11.10;2.47;;;19.00;99.90;;;;;;4980769;28;20222;-74
2022/12/06 13:12:30;;;;;;;10.48;2.55;;;19.00;99.90;;;;;;4981245;28;20238;-75
2022/12/06 13:15:02;;;;;;;18.58;2.70;;;19.00;99.90;;;;;;4981360;28;20646;-75
2022/12/06 13:17:34;;;;;;;14.52;2.90;;;19.00;99.90;;;;;;4981715;28;20187;-75
2022/12/06 13:20:02;;;;;;;16.90;3.08;;;18.90;99.90;;;;;;4981686;28;20194;-75
2022/12/06 13:22:36;;;;;;;18.17;3.17;;;18.90;99.90;;;;;;4981926;28;20581;-74
2022/12/06 13:25:06;;;;;;;15.70;2.53;;;19.00;99.90;;;;;;4982207;28;20233;-75
2022/12/06 13:27:41;;;;;;;10.23;2.08;;;18.90;99.90;;;;;;4981033;28;20221;-75
2022/12/06 13:30:15;;;;;;;17.38;2.92;;;18.90;99.90;;;;;;4981185;28;20183;-74
2022/12/06 13:32:46;;;;;;;17.08;3.08;;;19.00;99.90;;;;;;4981228;28;20217;-75
2022/12/06 13:35:25;;;;;;;15.70;3.67;;;18.90;99.90;;;;;;4981490;28;20258;-75
2022/12/06 13:37:54;;;;;;;20.30;3.72;;;18.90;99.90;;;;;;4981250;28;20631;-75
2022/12/06 13:40:47;;;;;;;19.08;3.35;;;18.90;99.90;;;;;;4984667;28;20207;-75
2022/12/06 13:43:53;;;;;;;16.48;2.88;;;18.90;99.90;;;;;;4982028;28;20199;-75
2022/12/06 13:46:24;;;;;;;19.15;2.75;;;18.90;99.90;;;;;;4978394;28;20230;-72
2022/12/06 13:48:53;;;;;;;18.05;2.58;;;18.90;99.90;;;;;;4978538;28;20195;-72
2022/12/06 13:51:43;;;;;;;14.48;2.15;;;18.90;99.90;;;;;;4978605;28;20238;-74
2022/12/06 13:54:37;;;;;;;12.27;2.45;;;18.80;99.90;;;;;;4978499;28;20183;-73
2022/12/06 13:57:25;;;;;;;15.27;2.83;;;18.90;99.90;;;;;;4978409;28;20210;-73
2022/12/06 13:59:52;;;;;;;8.38;2.25;;;18.90;99.90;;;;;;4978384;28;20254;-73
2022/12/06 14:02:54;;;;;;;11.82;2.72;;;18.90;99.90;;;;;;4979149;28;20270;-73
2022/12/06 14:05:57;;;;;;;13.25;2.25;;;18.90;99.90;;;;;;4978188;28;20613;-73
2022/12/06 14:08:36;;;;;;;21.05;2.40;;;18.90;99.90;;;;;;4978161;28;20206;-73
2022/12/06 14:11:26;;;;;;;13.52;2.15;;;19.00;99.90;;;;;;4977851;28;20635;-73
2022/12/06 14:14:01;;;;;;;18.95;2.72;;;18.90;99.90;;;;;;4977902;28;20682;-73
2022/12/06 14:16:32;;;;;;;12.07;2.45;;;19.10;99.90;;;;;;4977979;28;20309;-73
2022/12/06 14:19:02;;;;;;;11.40;2.30;;;19.00;99.90;;;;;;4977959;28;20188;-73
2022/12/06 14:21:34;;;;;;;7.05;2.08;;;19.00;99.90;;;;;;4978308;28;20195;-73
2022/12/06 14:24:01;;;;;;;6.15;2.47;;;19.00;99.90;;;;;;4977651;28;20553;-73
2022/12/06 14:26:30;;;;;;;9.98;2.00;;;19.00;99.90;;;;;;4977708;28;20227;-73
2022/12/06 14:28:59;;;;;;;17.52;2.47;;;19.00;99.90;;;;;;4977541;28;20217;-73
2022/12/06 14:31:29;;;;;;;11.80;2.50;;;19.00;99.90;;;;;;4977575;28;20207;-73
2022/12/06 14:33:56;;;;;;;7.05;2.00;;;19.00;99.90;;;;;;4977681;28;20203;-72
2022/12/06 14:36:28;;;;;;;5.78;2.08;;;19.00;99.90;;;;;;4977566;28;20238;-72
2022/12/06 14:39:00;;;;;;;7.82;2.10;;;19.00;99.90;;;;;;4977624;28;20202;-72
2022/12/06 14:44:19;;;;;;;7.47;2.05;;;19.00;99.90;;;;;;4977948;28;20254;-72
2022/12/06 14:46:47;;;;;;;9.85;2.38;;;19.00;99.90;;;;;;4977518;28;20206;-72
2022/12/06 14:52:17;;;;;;;5.10;2.15;;;19.00;99.90;;;;;;4976913;28;20214;-72
2022/12/06 14:54:44;;;;;;;13.48;2.10;;;19.00;99.90;;;;;;4977052;28;20713;-72
2022/12/06 14:57:24;;;;;;;5.68;1.52;;;18.90;99.90;;;;;;4977570;28;20207;-72
2022/12/06 14:59:58;;;;;;;9.02;2.28;;;19.00;99.90;;;;;;4977229;28;20187;-72
2022/12/06 15:02:27;;;;;;;7.03;2.08;;;19.00;99.90;;;;;;4977080;28;20677;-72
2022/12/06 15:04:54;;;;;;;5.43;1.48;;;19.00;99.90;;;;;;4976967;28;20222;-72
2022/12/06 15:07:42;;;;;;;14.32;2.58;;;19.00;99.90;;;;;;4977026;28;20191;-72
2022/12/06 15:10:24;;;;;;;8.57;2.30;;;19.00;99.90;;;;;;4976651;28;20214;-72
2022/12/06 15:12:54;;;;;;;7.65;1.52;;;18.90;99.90;;;;;;4976905;28;20573;-72
2022/12/06 15:15:38;;;;;;;11.15;2.00;;;18.90;99.90;;;;;;4977076;28;20219;-72
2022/12/06 15:18:11;;;;;;;4.70;1.63;;;19.00;99.90;;;;;;4977052;28;20586;-72
2022/12/06 15:20:38;;;;;;;5.78;1.88;;;18.90;99.90;;;;;;4976791;28;20207;-72
2022/12/06 15:23:28;;;;;;;6.97;2.17;;;18.90;99.90;;;;;;4976994;28;20207;-72
2022/12/06 15:25:55;;;;;;;9.68;2.15;;;18.90;99.90;;;;;;4976749;28;20227;-72
2022/12/06 15:28:22;;;;;;;2.08;1.88;;;19.00;99.90;;;;;;4976264;28;20206;-72
2022/12/06 15:30:49;;;;;;;7.03;1.70;;;19.00;99.90;;;;;;4976628;28;20206;-72
2022/12/06 15:33:17;;;;;;;3.78;1.75;;;19.10;99.90;;;;;;4976447;28;20223;-72
2022/12/06 15:35:44;;;;;;;9.73;1.77;;;19.00;99.90;;;;;;4976759;28;20223;-72
2022/12/06 15:38:11;;;;;;;8.05;1.98;;;19.00;99.90;;;;;;4976484;28;20203;-72
2022/12/06 15:40:42;;;;;;;8.10;1.92;;;19.00;99.90;;;;;;4976557;28;20254;-72
2022/12/06 15:43:24;;;;;;;11.13;1.90;;;19.00;99.90;;;;;;4976349;28;20187;-72
2022/12/06 15:45:52;;;;;;;5.25;1.70;;;19.00;99.90;;;;;;4976217;28;20729;-72
2022/12/06 15:48:19;;;;;;;8.27;1.70;;;19.00;99.90;;;;;;4976233;28;20207;-72
2022/12/06 15:50:45;;;;;;;5.72;2.17;;;18.90;99.90;;;;;;4976267;28;20206;-73
2022/12/06 15:53:13;;;;;;;7.03;1.60;;;18.90;99.90;;;;;;4976141;28;20277;-73
2022/12/06 15:55:42;;;;;;;3.92;2.00;;;19.00;99.90;;;;;;4975705;28;20230;-73
2022/12/06 15:58:08;;;;;;;5.60;1.80;;;19.00;99.90;;;;;;4975737;28;20662;-73
2022/12/06 16:00:35;;;;;;;6.45;1.88;;;19.00;99.90;;;;;;4976013;28;20206;-73
2022/12/06 16:03:02;;;;;;;5.35;2.00;;;19.00;99.90;;;;;;4975561;28;20195;-73
2022/12/06 16:05:29;;;;;;;6.13;1.75;;;19.00;99.90;;;;;;4975836;28;20226;-73
2022/12/06 16:07:56;;;;;;;5.43;1.40;;;19.00;99.90;;;;;;4976081;28;20206;-73
2022/12/06 16:10:23;;;;;;;17.40;2.30;;;18.90;99.90;;;;;;4978644;28;20210;-73
2022/12/06 16:15:37;;;;;;;10.25;2.28;;;18.90;99.90;;;;;;4982216;28;20225;-74
2022/12/06 16:18:05;;;;;;;8.10;3.00;;;18.90;99.90;;;;;;4982483;28;20626;-74
2022/12/06 16:20:32;;;;;;;11.68;1.60;;;18.90;99.90;;;;;;4982184;28;20213;-73
2022/12/06 16:25:45;;;;;;;5.25;1.73;;;18.80;99.90;;;;;;4981358;28;20225;-74
2022/12/06 16:28:14;;;;;;;3.42;1.70;;;18.90;99.90;;;;;;4980808;28;20207;-73
2022/12/06 16:30:41;;;;;;;9.10;2.15;;;18.90;99.90;;;;;;4975577;28;20206;-74
2022/12/06 16:33:08;;;;;;;9.88;1.85;;;18.90;99.90;;;;;;4975351;28;20227;-73
2022/12/06 16:35:35;;;;;;;15.63;2.20;;;18.90;99.90;;;;;;4975316;28;20226;-72
2022/12/06 16:38:01;;;;;;;7.75;2.10;;;19.00;99.90;;;;;;4975347;28;20199;-72
2022/12/06 16:40:29;;;;;;;9.27;2.20;;;19.00;99.90;;;;;;4975285;28;20294;-73
2022/12/06 16:42:56;;;;;;;16.45;2.20;;;19.00;99.90;;;;;;4975207;28;20662;-72
2022/12/06 16:45:24;;;;;;;13.80;2.13;;;19.00;99.90;;;;;;4975136;28;20233;-73
2022/12/06 16:47:51;;;;;;;12.23;2.40;;;19.00;99.90;;;;;;4975445;28;20199;-74
2022/12/06 16:50:23;;;;;;;12.70;2.20;;;19.00;99.90;;;;;;4975045;28;20202;-75
2022/12/06 16:52:50;;;;;;;11.70;1.73;;;19.00;99.90;;;;;;4975057;28;20214;-75
2022/12/06 16:55:17;;;;;;;7.20;1.63;;;19.00;99.90;;;;;;4975070;28;20230;-75
2022/12/06 16:57:44;;;;;;;16.38;2.63;;;18.90;99.90;;;;;;4975011;28;20203;-73
2022/12/06 17:00:12;;;;;;;10.35;1.75;;;18.90;99.90;;;;;;4975042;28;20562;-74
2022/12/06 17:02:43;;;;;;;19.38;2.40;;;18.90;99.90;;;;;;4975045;28;20210;-74
2022/12/06 17:05:17;;;;;;;21.83;2.60;;;18.90;99.90;;;;;;4975267;28;20313;-74
2022/12/06 17:07:44;;;;;;;24.33;3.20;;;18.90;99.90;;;;;;4975205;28;20197;-74
2022/12/06 17:10:12;;;;;;;6.72;1.95;;;18.90;99.90;;;;;;4975052;28;20207;-74
2022/12/06 17:12:39;;;;;;;12.32;1.80;;;18.90;99.90;;;;;;4974860;28;20265;-75
2022/12/06 17:15:06;;;;;;;13.00;1.88;;;18.90;99.90;;;;;;4974311;28;20223;-75
2022/12/06 17:17:33;;;;;;;12.85;2.20;;;18.90;99.90;;;;;;4974808;28;20209;-75
2022/12/06 17:20:01;;;;;;;12.98;1.95;;;18.90;99.90;;;;;;4974754;28;20229;-75
2022/12/06 17:22:28;;;;;;;12.20;2.10;;;18.90;99.90;;;;;;4974759;28;20203;-75
2022/12/06 17:24:55;;;;;;;11.27;2.03;;;18.80;99.90;;;;;;4974937;28;20223;-75
2022/12/06 17:27:22;;;;;;;10.77;1.77;;;18.80;99.90;;;;;;4974621;28;20215;-75
2022/12/06 17:29:48;;;;;;;15.15;2.20;;;18.80;99.90;;;;;;4974742;28;20187;-75
2022/12/06 17:32:16;;;;;;;8.93;2.08;;;18.80;99.90;;;;;;4974825;28;20203;-75
2022/12/06 17:34:43;;;;;;;8.68;1.90;;;18.90;99.90;;;;;;4974619;28;20229;-75
2022/12/06 17:37:11;;;;;;;12.98;2.22;;;18.90;99.90;;;;;;4974626;28;20211;-74
2022/12/06 17:39:38;;;;;;;5.35;2.38;;;18.80;99.90;;;;;;4974828;28;20214;-71
2022/12/06 17:44:50;;;;;;;15.38;2.70;;;18.90;99.90;;;;;;4974533;28;20214;-73
2022/12/06 17:47:17;;;;;;;5.00;2.05;;;18.90;99.90;;;;;;4974540;28;20203;-72
2022/12/06 17:49:44;;;;;;;13.30;2.70;;;18.90;99.90;;;;;;4974246;28;20199;-72
2022/12/06 17:52:12;;;;;;;15.20;2.25;;;19.00;99.90;;;;;;4974908;28;20191;-75
2022/12/06 17:54:39;;;;;;;8.48;2.10;;;18.90;99.90;;;;;;4975387;28;20235;-75
2022/12/06 17:57:05;;;;;;;13.07;2.00;;;18.90;99.90;;;;;;4977285;28;20207;-74
2022/12/06 17:59:33;;;;;;;7.68;2.30;;;18.90;99.90;;;;;;4976660;28;20666;-76
2022/12/06 18:02:00;;;;;;;8.73;2.55;;;18.90;99.90;;;;;;4974914;28;20210;-77
2022/12/06 18:04:28;;;;;;;8.05;1.88;;;18.80;99.90;;;;;;4974521;28;20293;-76
2022/12/06 18:06:54;;;;;;;7.90;2.20;;;18.90;99.90;;;;;;4974389;28;20206;-76
2022/12/06 18:09:23;;;;;;;5.88;2.15;;;18.80;99.90;;;;;;4974311;28;20207;-76
2022/12/06 18:11:50;;;;;;;7.57;2.20;;;18.80;99.90;;;;;;4974571;28;20203;-76
2022/12/06 18:14:17;;;;;;;7.43;2.08;;;18.80;99.90;;;;;;4974358;28;20728;-75
2022/12/06 18:16:46;;;;;;;7.85;2.08;;;18.80;99.90;;;;;;4974356;28;20269;-76
2022/12/06 18:19:15;;;;;;;15.70;2.85;;;18.80;99.90;;;;;;4974237;28;20298;-76
2022/12/06 18:21:42;;;;;;;12.07;2.78;;;18.80;99.90;;;;;;4973997;28;20206;-75
2022/12/06 18:24:11;;;;;;;14.23;2.25;;;18.90;99.90;;;;;;4974466;28;20210;-75
2022/12/06 18:26:39;;;;;;;16.52;2.75;;;18.90;99.90;;;;;;4977870;28;20233;-75
2022/12/06 18:29:07;;;;;;;9.43;2.85;;;19.00;99.90;;;;;;4977536;28;20211;-75
2022/12/06 18:31:35;;;;;;;12.18;2.97;;;19.00;99.90;;;;;;4977319;28;20210;-76
2022/12/06 18:34:02;;;;;;;11.93;2.60;;;19.00;99.90;;;;;;4977685;28;20219;-76
2022/12/06 18:36:30;;;;;;;10.48;2.97;;;19.00;99.90;;;;;;4977813;28;20590;-76
2022/12/06 18:38:59;;;;;;;16.95;3.25;;;19.00;99.90;;;;;;4977873;28;20218;-74
2022/12/06 18:41:27;;;;;;;15.45;2.97;;;19.00;99.90;;;;;;4978613;28;20213;-74
2022/12/06 18:43:59;;;;;;;13.27;2.72;;;19.00;99.90;;;;;;4981873;28;20562;-73
2022/12/06 18:46:26;;;;;;;11.77;2.50;;;19.00;99.90;;;;;;4981694;28;20223;-74
2022/12/06 18:48:56;;;;;;;15.73;2.97;;;19.10;99.90;;;;;;4981787;28;20214;-73
2022/12/06 18:51:24;;;;;;;11.73;2.80;;;19.10;99.90;;;;;;4980170;28;20207;-73
2022/12/06 18:53:51;;;;;;;8.70;2.50;;;19.10;99.90;;;;;;4977855;28;20226;-75
2022/12/06 18:56:20;;;;;;;8.65;3.03;;;19.10;99.90;;;;;;4977496;28;20594;-74
2022/12/06 18:58:47;;;;;;;8.68;2.92;;;19.10;99.90;;;;;;4978378;28;20207;-76
2022/12/06 19:01:17;;;;;;;18.35;3.10;;;19.10;99.90;;;;;;4978435;28;20203;-75
2022/12/06 19:03:45;;;;;;;12.27;2.72;;;19.20;99.90;;;;;;4977530;28;20770;-76
2022/12/06 19:06:14;;;;;;;14.43;2.85;;;19.20;99.90;;;;;;4977063;28;20230;-76
2022/12/06 19:08:42;;;;;;;11.55;3.40;;;19.20;99.90;;;;;;4976882;28;20214;-76
2022/12/06 19:11:16;;;;;;;15.65;3.05;;;19.20;99.90;;;;;;4976993;28;20203;-75
2022/12/06 19:13:44;;;;;;;8.85;2.50;;;19.10;99.90;;;;;;4977040;28;20240;-75
2022/12/06 19:16:11;;;;;;;20.98;4.45;;;19.00;99.90;;;;;;4977023;28;20250;-76
2022/12/06 19:18:39;;;;;;;17.58;3.25;;;19.00;99.90;;;;;;4976823;28;20253;-76
2022/12/06 19:21:06;;;;;;;25.92;4.30;;;19.10;99.90;;;;;;4976839;28;20573;-76
2022/12/06 19:23:32;;;;;;;20.40;4.13;;;19.10;99.90;;;;;;4976765;28;20210;-75
2022/12/06 19:26:00;;;;;;;19.83;4.03;;;19.10;99.90;;;;;;4976453;28;20229;-74
2022/12/06 19:28:27;;;;;;;18.80;4.28;;;19.10;99.90;;;;;;4976215;28;20218;-74
2022/12/06 19:30:58;;;;;;;21.17;4.45;;;19.20;99.90;;;;;;4976465;28;20203;-74
2022/12/06 19:33:25;;;;;;;18.20;4.20;;;19.20;99.90;;;;;;4976322;28;20219;-74
2022/12/06 19:36:01;;;;;;;15.10;3.97;;;19.20;99.90;;;;;;4976050;28;20226;-74
2022/12/06 19:38:29;;;;;;;16.17;3.80;;;19.20;99.90;;;;;;4975969;28;20206;-74
2022/12/06 19:40:56;;;;;;;12.65;3.60;;;19.10;99.90;;;;;;4976360;28;20576;-74
2022/12/06 19:46:10;;;;;;;15.55;3.65;;;19.10;99.90;;;;;;4976310;28;20570;-74
2022/12/06 19:48:37;;;;;;;16.90;3.60;;;19.10;99.90;;;;;;4976529;28;20221;-74
2022/12/06 19:51:06;;;;;;;14.70;3.55;;;19.10;99.90;;;;;;4976153;28;20199;-74
2022/12/06 19:53:33;;;;;;;8.45;3.40;;;19.10;99.90;;;;;;4976061;28;20226;-74
2022/12/06 19:56:00;;;;;;;13.70;3.75;;;19.10;99.90;;;;;;4975998;28;20225;-74
2022/12/06 19:58:27;;;;;;;12.25;2.92;;;19.10;99.90;;;;;;4976116;28;20214;-74
2022/12/06 20:00:54;;;;;;;19.17;3.75;;;19.10;99.90;;;;;;4976015;28;20207;-73
2022/12/06 20:03:20;;;;;;;9.43;3.22;;;19.10;99.90;;;;;;4975930;28;20199;-74
2022/12/06 20:05:47;;;;;;;9.07;3.63;;;19.10;99.90;;;;;;4975883;28;20597;-74
2022/12/06 20:08:15;;;;;;;13.70;3.35;;;19.10;99.90;;;;;;4975898;28;20207;-74
2022/12/06 20:10:43;;;;;;;15.63;3.65;;;19.10;99.90;;;;;;4975767;28;20686;-75
2022/12/06 20:13:10;;;;;;;10.60;3.60;;;19.10;99.90;;;;;;4975714;28;20199;-75
2022/12/06 20:15:37;;;;;;;11.18;3.20;;;19.20;99.90;;;;;;4975680;28;20233;-74
2022/12/06 20:18:04;;;;;;;12.32;3.85;;;19.20;99.90;;;;;;4975688;28;20238;-74
2022/12/06 20:20:31;;;;;;;14.98;3.53;;;19.10;99.90;;;;;;4975608;28;20199;-74
2022/12/06 20:22:57;;;;;;;9.43;2.72;;;19.10;99.90;;;;;;4975256;28;20671;-74
2022/12/06 20:25:25;;;;;;;12.10;3.03;;;19.10;99.90;;;;;;4975442;28;20225;-74
2022/12/06 20:27:53;;;;;;;11.43;2.92;;;19.00;99.90;;;;;;4975278;28;20207;-74
2022/12/06 20:30:22;;;;;;;9.65;3.33;;;19.00;99.90;;;;;;4975457;28;20257;-74
2022/12/06 20:32:49;;;;;;;6.35;2.78;;;19.00;99.90;;;;;;4975382;28;20214;-74
2022/12/06 20:35:16;;;;;;;7.15;3.17;;;19.00;99.90;;;;;;4975255;28;20222;-75
2022/12/06 20:37:42;;;;;;;5.25;3.13;;;18.90;99.90;;;;;;4975349;28;20209;-75
2022/12/06 20:40:10;;;;;;;9.13;3.13;;;18.90;99.90;;;;;;4975566;28;20206;-75
2022/12/06 20:42:38;;;;;;;9.55;2.97;;;18.90;99.90;;;;;;4975254;28;20210;-75
2022/12/06 20:45:06;;;;;;;7.25;3.08;;;19.00;99.90;;;;;;4974867;28;20218;-76
2022/12/06 20:47:33;;;;;;;7.20;2.65;;;18.90;99.90;;;;;;4975105;28;20262;-75
2022/12/06 20:50:00;;;;;;;8.07;3.22;;;18.90;99.90;;;;;;4975132;28;20207;-75
2022/12/06 20:52:26;;;;;;;8.23;3.28;;;18.90;99.90;;;;;;4975195;28;20199;-73
2022/12/06 20:54:53;;;;;;;11.38;3.30;;;19.00;99.90;;;;;;4974911;28;20231;-73
2022/12/06 20:57:21;;;;;;;8.43;3.30;;;18.90;99.90;;;;;;4975043;28;20214;-73
2022/12/06 20:59:49;;;;;;;5.68;3.25;;;18.90;99.90;;;;;;4975019;28;20211;-73
2022/12/06 21:02:16;;;;;;;3.50;2.97;;;18.80;99.90;;;;;;4974985;28;20199;-73
2022/12/06 21:04:43;;;;;;;4.53;3.20;;;18.80;99.90;;;;;;4974877;28;20270;-73
2022/12/06 21:07:10;;;;;;;6.90;3.22;;;18.80;99.90;;;;;;4974621;28;20206;-73
2022/12/06 21:09:36;;;;;;;7.45;3.17;;;18.80;99.90;;;;;;4974895;28;20207;-73
2022/12/06 21:12:03;;;;;;;8.32;3.30;;;18.90;99.90;;;;;;4974870;28;20205;-73
2022/12/06 21:14:30;;;;;;;5.43;3.20;;;18.90;99.90;;;;;;4974727;28;20226;-73
2022/12/06 21:16:58;;;;;;;4.90;3.28;;;18.90;99.90;;;;;;4974832;28;20297;-73
2022/12/06 21:19:25;;;;;;;8.18;3.15;;;19.10;99.90;;;;;;4974802;28;20202;-73
2022/12/06 21:21:56;;;;;;;5.50;3.58;;;19.10;99.90;;;;;;4974771;28;20203;-73
2022/12/06 21:24:23;;;;;;;4.63;3.08;;;19.10;99.90;;;;;;4974660;28;20184;-73
2022/12/06 21:26:50;;;;;;;7.47;3.53;;;19.10;99.90;;;;;;4974721;28;20203;-72
2022/12/06 21:29:18;;;;;;;10.38;3.60;;;19.10;99.90;;;;;;4974338;28;20207;-72
2022/12/06 21:31:45;;;;;;;7.20;3.47;;;19.00;99.90;;;;;;4974727;28;20210;-73
2022/12/06 21:34:14;;;;;;;6.35;3.85;;;19.00;99.90;;;;;;4974286;28;20215;-72
2022/12/06 21:36:42;;;;;;;4.90;3.45;;;19.00;99.90;;;;;;4974605;28;20242;-72
2022/12/06 21:39:10;;;;;;;4.85;3.33;;;19.00;99.90;;;;;;4974606;28;20203;-72
2022/12/06 21:41:38;;;;;;;10.48;3.53;;;19.00;99.90;;;;;;4974640;28;20207;-72
2022/12/06 21:44:05;;;;;;;4.50;3.30;;;19.00;99.90;;;;;;4974622;28;20198;-72
2022/12/06 21:46:32;;;;;;;6.88;2.85;;;19.00;99.90;;;;;;4974549;28;20273;-72
2022/12/06 21:49:00;;;;;;;3.25;2.92;;;19.00;99.90;;;;;;4974308;28;20704;-72
2022/12/06 21:51:30;;;;;;;5.30;3.00;;;19.00;99.90;;;;;;4974539;28;20211;-72
2022/12/06 21:53:57;;;;;;;5.88;3.13;;;19.00;99.90;;;;;;4974654;28;20203;-72
2022/12/06 21:56:26;;;;;;;12.60;3.88;;;19.00;99.90;;;;;;4974124;28;20725;-72
2022/12/06 21:58:53;;;;;;;7.95;3.67;;;19.00;99.90;;;;;;4974469;28;20214;-72
2022/12/06 22:01:22;;;;;;;5.43;2.65;;;19.00;99.90;;;;;;4977719;28;20206;-72
2022/12/06 22:03:51;;;;;;;4.13;2.80;;;19.00;99.90;;;;;;4978152;28;20262;-72
2022/12/06 22:06:18;;;;;;;6.43;2.92;;;19.00;99.90;;;;;;4978049;28;20233;-72
2022/12/06 22:08:47;;;;;;;5.10;3.10;;;19.00;99.90;;;;;;4977777;28;20698;-71
2022/12/06 22:11:16;;;;;;;6.72;2.70;;;19.00;99.90;;;;;;4977753;28;20670;-71
2022/12/06 22:13:43;;;;;;;6.00;3.50;;;19.00;99.90;;;;;;4978126;28;20208;-71
2022/12/06 22:16:11;;;;;;;5.57;2.92;;;18.90;99.90;;;;;;4977899;28;20249;-71
2022/12/06 22:18:39;;;;;;;5.05;3.20;;;18.90;99.90;;;;;;4978190;28;20199;-71
2022/12/06 22:21:08;;;;;;;3.78;3.22;;;18.90;99.90;;;;;;4977870;28;20214;-71
2022/12/06 22:23:34;;;;;;;11.50;3.28;;;18.90;99.90;;;;;;4977816;28;20203;-71
2022/12/06 22:26:06;;;;;;;2.83;2.53;;;19.00;99.90;;;;;;4977916;28;20222;-72
2022/12/06 22:28:33;;;;;;;7.72;3.13;;;19.00;99.90;;;;;;4977627;28;20214;-72
2022/12/06 22:31:08;;;;;;;3.60;3.15;;;19.10;99.90;;;;;;4977698;28;20609;-72
2022/12/06 22:33:34;;;;;;;4.50;3.08;;;19.10;99.90;;;;;;4977704;28;20194;-72
2022/12/06 22:36:01;;;;;;;6.05;3.42;;;19.10;99.90;;;;;;4977446;28;20234;-72
2022/12/06 22:38:28;;;;;;;5.00;3.55;;;19.10;99.90;;;;;;4977586;28;20198;-72
2022/12/06 22:40:56;;;;;;;7.28;3.15;;;19.10;99.90;;;;;;4977207;28;20206;-72
2022/12/06 22:43:24;;;;;;;3.80;3.00;;;19.00;99.90;;;;;;4977442;28;20210;-72
2022/12/06 22:45:52;;;;;;;5.05;3.05;;;19.00;99.90;;;;;;4977407;28;20215;-72
2022/12/06 22:48:19;;;;;;;7.90;2.95;;;19.00;99.90;;;;;;4977593;28;20207;-72
2022/12/06 22:50:45;;;;;;;7.18;2.78;;;19.00;99.90;;;;;;4977589;28;20203;-71
2022/12/06 22:53:12;;;;;;;9.90;3.03;;;19.00;99.90;;;;;;4977295;28;20207;-71
2022/12/06 22:55:39;;;;;;;3.05;2.72;;;19.00;99.90;;;;;;4976796;28;20582;-71
2022/12/06 22:58:06;;;;;;;3.63;3.30;;;19.00;99.90;;;;;;4976892;28;20671;-71
